Terminal Aerodrome Forecast
Issued by NWS

Home | Current Version | Previous Version | Text Only | Print | Product List | Glossary On
Versions: 1 2 3 4 5 6 7 8 9 10 11 12
192
FTUS44 KTSA 072320
TAFFYV
TAF
KFYV 072320Z 0800/0824 31010KT P6SM SKC
     FM080600 31009G19KT P6SM FEW150
     FM081400 32014G25KT P6SM BKN050=

USA.gov is the U.S. government's official web portal to all federal, state and local government web resources and services.